Time;durP1;ratioP1;P1;durP2;ratioP2;P2;SDS_P1;SDS_P2;PMS_P1;PMS_P2;Temp;Humidity;BMP_temperature;BMP_pressure;BME280_temperature;BME280_humidity;BME280_pressure;Samples;Min_cycle;Max_cycle;Signal;HPM_P1;HPM_P2
2022/07/01 00:02:43;;;;;;;11.05;8.35;;;;;;;18.11;92.86;97557.03;10420697;28;20502;-61
2022/07/01 00:07:42;;;;;;;11.70;8.85;;;;;;;18.09;93.26;97548.34;10420789;28;20049;-61
2022/07/01 00:12:41;;;;;;;12.18;8.50;;;;;;;18.05;93.55;97547.59;10420212;28;20415;-61
2022/07/01 00:17:40;;;;;;;18.05;9.45;;;;;;;18.05;93.45;97544.94;10418961;28;20024;-61
2022/07/01 00:22:39;;;;;;;12.15;9.80;;;;;;;18.06;93.50;97545.81;10420366;28;20056;-61
2022/07/01 00:27:39;;;;;;;15.27;9.73;;;;;;;18.02;93.83;97554.72;10415424;28;20049;-61
2022/07/01 00:32:38;;;;;;;15.10;9.32;;;;;;;17.95;94.09;97549.66;10419809;28;20040;-61
2022/07/01 00:37:38;;;;;;;13.30;9.80;;;;;;;17.96;94.41;97534.75;10419626;28;20055;-61
2022/07/01 00:42:40;;;;;;;13.45;9.77;;;;;;;17.95;94.86;97554.06;10418904;28;20048;-61
2022/07/01 00:47:41;;;;;;;15.65;9.93;;;;;;;17.83;94.38;97521.22;10419593;28;20053;-61
2022/07/01 00:52:41;;;;;;;15.90;10.07;;;;;;;17.94;94.48;97544.47;10418579;28;20060;-61
2022/07/01 00:57:42;;;;;;;16.17;9.35;;;;;;;17.80;96.41;97544.94;10415192;28;20060;-61
2022/07/01 01:02:41;;;;;;;15.70;9.55;;;;;;;17.44;96.69;97512.88;10415565;28;20496;-61
2022/07/01 01:07:41;;;;;;;12.57;8.70;;;;;;;17.52;96.47;97547.59;10414946;28;20551;-61
2022/07/01 01:12:40;;;;;;;16.48;9.70;;;;;;;17.50;95.90;97544.16;10415358;28;20450;-61
2022/07/01 01:17:39;;;;;;;12.35;9.20;;;;;;;17.41;95.44;97537.44;10415287;28;20052;-61
2022/07/01 01:22:38;;;;;;;12.10;8.68;;;;;;;17.28;95.90;97547.44;10430361;28;20047;-61
2022/07/01 01:27:37;;;;;;;13.15;8.10;;;;;;;17.26;95.43;97553.63;10414456;28;20067;-61
2022/07/01 01:32:37;;;;;;;14.20;9.48;;;;;;;17.21;95.49;97556.41;10446664;28;20036;-61
2022/07/01 01:37:36;;;;;;;13.10;9.43;;;;;;;17.22;95.08;97552.88;10464397;28;20056;-61
2022/07/01 01:42:35;;;;;;;14.75;9.10;;;;;;;17.21;95.13;97564.25;10464185;28;20043;-61
2022/07/01 01:47:34;;;;;;;12.48;9.27;;;;;;;17.20;95.14;97573.06;10464302;28;20059;-61
2022/07/01 01:52:34;;;;;;;12.68;8.75;;;;;;;16.84;96.11;97531.31;10464530;28;20040;-61
2022/07/01 01:57:33;;;;;;;12.18;8.52;;;;;;;16.88;97.86;97574.84;10463195;28;20067;-61
2022/07/01 02:02:33;;;;;;;12.32;9.23;;;;;;;16.78;97.75;97568.16;10464070;28;20078;-61
2022/07/01 02:07:32;;;;;;;13.52;8.80;;;;;;;16.78;97.49;97578.63;10444655;28;20510;-61
2022/07/01 02:12:32;;;;;;;12.85;9.05;;;;;;;16.78;97.58;97581.25;10463467;28;20483;-61
2022/07/01 02:17:31;;;;;;;15.27;10.10;;;;;;;16.74;98.00;97592.72;10463501;28;20078;-61
2022/07/01 02:22:29;;;;;;;13.10;10.10;;;;;;;16.73;97.91;97591.84;10462545;28;20035;-61
2022/07/01 02:27:28;;;;;;;;;;;;;;;16.73;97.66;97596.25;10463428;28;20115;-61
2022/07/01 02:32:27;;;;;;;16.40;10.90;;;;;;;16.75;97.60;97593.56;10463191;28;19947;-61
2022/07/01 02:37:27;;;;;;;16.65;10.52;;;;;;;16.77;97.73;97603.13;10461023;28;20059;-61
2022/07/01 02:42:26;;;;;;;14.27;10.30;;;;;;;16.76;97.75;97598.78;10461751;28;20067;-61
2022/07/01 02:47:31;;;;;;;16.73;11.15;;;;;;;16.76;97.98;97604.00;10462135;28;20067;-61
2022/07/01 02:52:30;;;;;;;14.05;10.45;;;;;;;16.61;98.08;97583.50;10461848;28;20067;-61
2022/07/01 02:57:29;;;;;;;20.33;11.95;;;;;;;16.72;98.43;97615.47;10460994;28;20060;-61
2022/07/01 03:02:28;;;;;;;16.27;9.10;;;;;;;16.67;99.33;97633.09;10465199;28;20070;-61
2022/07/01 03:07:27;;;;;;;16.55;10.77;;;;;;;16.70;99.07;97633.03;10464215;28;20072;-61
2022/07/01 03:12:29;;;;;;;16.65;10.05;;;;;;;16.76;98.70;97630.22;10464148;28;20031;-61
2022/07/01 03:17:29;;;;;;;19.83;10.73;;;;;;;16.79;98.41;97635.34;10446103;28;20036;-61
2022/07/01 03:22:30;;;;;;;17.73;10.75;;;;;;;16.67;98.89;97640.94;10464113;28;20452;-61
2022/07/01 03:27:30;;;;;;;17.33;9.45;;;;;;;16.65;98.74;97632.25;10463286;28;20075;-61
2022/07/01 03:32:29;;;;;;;15.70;10.68;;;;;;;16.60;99.36;97637.63;10464785;28;20090;-61
2022/07/01 03:37:28;;;;;;;16.80;10.38;;;;;;;16.61;98.89;97636.75;10463230;28;20086;-61
2022/07/01 03:42:27;;;;;;;16.55;10.55;;;;;;;16.62;99.32;97635.84;10463286;28;20028;-61
2022/07/01 03:47:26;;;;;;;;;;;;;;;16.57;99.45;97636.88;10463755;28;20063;-61
2022/07/01 03:52:25;;;;;;;13.60;10.18;;;;;;;16.58;99.13;97622.84;10462480;28;20029;-61
2022/07/01 03:57:23;;;;;;;;;;;;;;;16.58;99.11;97633.34;10463095;28;20028;-61
2022/07/01 04:02:22;;;;;;;13.37;9.90;;;;;;;16.45;99.71;97646.78;10459292;28;19908;-61
2022/07/01 04:07:21;;;;;;;;;;;;;;;16.36;100.00;97644.38;10458588;28;20102;-61
2022/07/01 04:12:20;;;;;;;14.57;9.77;;;;;;;16.32;100.00;97645.34;10458688;28;19914;-61
2022/07/01 04:17:19;;;;;;;13.68;9.98;;;;;;;16.43;99.99;97655.56;10458758;28;20055;-61
2022/07/01 04:22:35;;;;;;;17.75;11.02;;;;;;;16.50;99.94;97636.16;10458025;28;20027;-61
2022/07/01 04:27:35;;;;;;;14.82;10.88;;;;;;;16.71;99.79;97650.44;10457278;28;20062;-61
2022/07/01 04:32:35;;;;;;;16.58;11.45;;;;;;;17.06;99.08;97662.59;10458250;28;20070;-61
2022/07/01 04:37:33;;;;;;;13.82;10.32;;;;;;;17.31;98.91;97657.50;10456715;28;20055;-61
2022/07/01 04:42:33;;;;;;;19.00;12.13;;;;;;;17.57;98.64;97642.75;10450610;28;20111;-61
2022/07/01 04:47:32;;;;;;;21.42;11.43;;;;;;;17.81;98.06;97650.78;10419686;28;20582;-61
2022/07/01 04:52:31;;;;;;;17.63;12.15;;;;;;;18.06;97.55;97651.72;10455320;28;20510;-61
2022/07/01 04:57:30;;;;;;;21.67;16.80;;;;;;;18.31;97.01;97656.16;10432535;28;20107;-61
2022/07/01 05:02:29;;;;;;;20.20;14.90;;;;;;;18.58;95.64;97644.69;10453593;28;20542;-61
2022/07/01 05:07:28;;;;;;;19.00;12.45;;;;;;;18.77;94.35;97651.97;10439362;28;20466;-61
2022/07/01 05:12:27;;;;;;;13.10;10.65;;;;;;;18.93;93.00;97654.91;10436772;28;20028;-61
2022/07/01 05:21:55;;;;;;;17.73;10.23;;;;;;;19.14;92.30;97663.78;10419475;28;20078;-61
2022/07/01 05:22:44;;;;;;;14.30;10.32;;;;;;;19.11;92.83;97658.63;10425250;28;20068;-61
2022/07/01 05:27:43;;;;;;;16.88;9.73;;;;;;;19.31;91.42;97657.88;10414248;28;20032;-61
2022/07/01 05:32:42;;;;;;;13.75;10.27;;;;;;;19.42;91.39;97663.63;10414746;28;20107;-61
2022/07/01 05:37:41;;;;;;;12.88;9.82;;;;;;;19.57;91.20;97667.44;10414891;28;20029;-61
2022/07/01 05:42:40;;;;;;;13.55;9.10;;;;;;;19.68;89.41;97665.25;10414440;28;20029;-61
2022/07/01 05:47:39;;;;;;;13.45;9.52;;;;;;;20.00;88.60;97671.00;10414332;28;20136;-61
2022/07/01 05:52:38;;;;;;;11.68;9.77;;;;;;;20.26;87.19;97667.34;10411016;28;20028;-61
2022/07/01 05:57:37;;;;;;;13.52;8.82;;;;;;;20.53;85.87;97662.69;10411483;28;20387;-61
2022/07/01 06:02:36;;;;;;;13.95;8.50;;;;;;;20.75;83.46;97654.75;10410333;28;20111;-61
2022/07/01 06:07:35;;;;;;;9.95;8.15;;;;;;;21.03;82.53;97680.75;10411146;28;20084;-61
2022/07/01 06:12:34;;;;;;;12.48;8.55;;;;;;;21.41;80.91;97667.63;10412171;28;20468;-61
2022/07/01 06:17:38;;;;;;;10.93;8.65;;;;;;;21.70;80.26;97670.69;10418885;28;20530;-61
2022/07/01 06:22:36;;;;;;;12.15;8.07;;;;;;;22.03;78.35;97668.25;10426009;28;20059;-61
2022/07/01 06:27:40;;;;;;;10.48;8.30;;;;;;;22.18;76.65;97662.22;10418227;28;20415;-61
2022/07/01 06:32:39;;;;;;;9.90;8.32;;;;;;;22.45;74.17;97658.25;10418972;28;20071;-61
2022/07/01 06:37:38;;;;;;;11.70;8.35;;;;;;;22.69;74.53;97654.34;10419480;28;20116;-61
2022/07/01 06:42:37;;;;;;;11.48;8.30;;;;;;;22.87;73.69;97655.22;10417804;28;20098;-61
2022/07/01 06:47:36;;;;;;;9.50;8.15;;;;;;;23.14;72.49;97652.03;10418555;28;20033;-61
2022/07/01 06:52:35;;;;;;;13.10;8.13;;;;;;;23.40;72.80;97638.28;10419308;28;20644;-61
2022/07/01 06:57:34;;;;;;;12.18;7.82;;;;;;;23.71;70.04;97635.75;10418083;28;20515;-61
2022/07/01 07:02:33;;;;;;;13.07;7.75;;;;;;;23.95;68.75;97644.94;10417970;28;20480;-61
2022/07/01 07:07:32;;;;;;;13.52;7.75;;;;;;;24.14;69.73;97630.63;10420886;28;20090;-61
2022/07/01 07:12:31;;;;;;;9.88;7.93;;;;;;;24.34;68.72;97635.69;10402916;28;20042;-61
2022/07/01 07:17:30;;;;;;;9.75;7.50;;;;;;;24.44;67.01;97644.78;10421416;28;20028;-61
2022/07/01 07:22:29;;;;;;;12.43;8.10;;;;;;;24.60;65.71;97642.09;10420688;28;20472;-61
2022/07/01 07:27:28;;;;;;;11.13;7.80;;;;;;;24.87;64.35;97646.69;10420396;28;20035;-61
2022/07/01 07:32:27;;;;;;;12.88;7.25;;;;;;;25.05;62.67;97652.69;10421937;28;20032;-61
2022/07/01 07:37:27;;;;;;;10.73;7.50;;;;;;;25.26;63.41;97646.03;10420189;28;20142;-61
2022/07/01 07:42:26;;;;;;;8.20;6.95;;;;;;;25.51;60.30;97650.69;10419140;28;20440;-61
2022/07/01 07:47:25;;;;;;;8.35;7.22;;;;;;;25.75;58.56;97650.09;10419882;28;20068;-61
2022/07/01 07:52:24;;;;;;;11.38;6.70;;;;;;;25.81;55.84;97619.59;10418892;28;20072;-61
2022/07/01 07:57:23;;;;;;;11.18;6.93;;;;;;;26.24;56.24;97646.91;10416410;28;20105;-61
2022/07/01 08:02:24;;;;;;;10.02;7.15;;;;;;;26.48;55.12;97636.44;10420612;28;20463;-61
2022/07/01 08:07:23;;;;;;;10.63;7.10;;;;;;;26.58;54.11;97632.22;10421226;28;20076;-62
2022/07/01 08:12:22;;;;;;;10.13;6.32;;;;;;;26.91;54.27;97636.22;10402728;28;20044;-61
2022/07/01 08:17:21;;;;;;;10.43;6.78;;;;;;;27.05;53.47;97629.91;10421445;28;20031;-61
2022/07/01 08:22:20;;;;;;;13.40;5.80;;;;;;;27.21;50.42;97643.00;10420301;28;20035;-61
2022/07/01 08:27:19;;;;;;;9.50;5.35;;;;;;;27.39;47.00;97639.03;10420253;28;20021;-61
2022/07/01 08:32:19;;;;;;;9.10;5.80;;;;;;;27.54;47.72;97630.91;10420331;28;20082;-61
2022/07/01 08:37:18;;;;;;;8.48;5.22;;;;;;;27.73;46.96;97625.97;10419220;28;20029;-61
2022/07/01 08:42:17;;;;;;;9.77;5.68;;;;;;;27.97;46.59;97630.47;10420092;28;20059;-60
2022/07/01 08:47:16;;;;;;;7.45;5.40;;;;;;;28.11;44.63;97627.66;10419898;28;20032;-60
2022/07/01 08:52:15;;;;;;;8.07;5.78;;;;;;;28.33;44.77;97634.03;10419616;28;20047;-61
2022/07/01 08:57:19;;;;;;;7.72;5.10;;;;;;;28.59;44.50;97621.38;10419450;28;20052;-61
2022/07/01 09:02:18;;;;;;;7.07;5.05;;;;;;;28.82;42.48;97619.63;10416845;28;20064;-61
2022/07/01 09:07:17;;;;;;;5.90;4.75;;;;;;;28.99;42.62;97621.88;10415932;28;20485;-61
2022/07/01 09:12:16;;;;;;;7.00;4.78;;;;;;;28.94;40.36;97621.34;10415449;28;20064;-61
2022/07/01 09:17:19;;;;;;;5.40;4.55;;;;;;;29.02;40.44;97610.94;10416172;28;20099;-61
2022/07/01 09:22:18;;;;;;;7.45;5.00;;;;;;;29.39;40.61;97607.16;10415333;28;20063;-61
2022/07/01 09:27:17;;;;;;;7.57;4.88;;;;;;;29.55;40.18;97617.50;10415050;28;20043;-61
2022/07/01 09:32:22;;;;;;;6.20;4.43;;;;;;;29.49;40.98;97625.03;10415265;28;20024;-61
2022/07/01 09:37:22;;;;;;;8.98;4.80;;;;;;;29.74;43.29;97616.84;10415291;28;20052;-62
2022/07/01 09:42:23;;;;;;;6.65;4.15;;;;;;;29.70;38.26;97611.75;10414974;28;20479;-61
2022/07/01 09:47:24;;;;;;;5.65;3.65;;;;;;;29.65;34.83;97599.75;10375472;28;20072;-61
2022/07/01 09:52:24;;;;;;;6.32;3.25;;;;;;;29.91;32.51;97613.69;10380678;28;20064;-61
2022/07/01 10:15:28;;;;;;;9.18;4.70;;;;;;;30.50;35.92;97572.19;10421413;28;20080;-61
2022/07/01 10:20:30;;;;;;;7.38;4.22;;;;;;;30.46;35.11;97576.94;10421230;28;20537;-61
2022/07/01 10:25:44;;;;;;;10.15;4.30;;;;;;;30.70;36.95;97578.50;10420171;28;20060;-61
2022/07/01 10:30:53;;;;;;;8.88;4.85;;;;;;;30.54;36.12;97584.34;10420843;28;20059;-61
2022/07/01 10:35:52;;;;;;;5.30;4.07;;;;;;;30.81;35.07;97575.75;10401503;28;20056;-61
2022/07/01 10:40:51;;;;;;;6.30;3.97;;;;;;;30.83;36.32;97575.63;10417630;28;20029;-61
2022/07/01 10:45:51;;;;;;;6.15;4.57;;;;;;;30.95;35.09;97575.44;10421724;28;20112;-61
2022/07/01 10:50:52;;;;;;;6.55;4.70;;;;;;;30.91;34.54;97570.44;10422213;28;20484;-61
2022/07/01 10:55:53;;;;;;;6.00;4.10;;;;;;;30.83;35.77;97556.88;10422570;28;20064;-61
2022/07/01 11:00:52;;;;;;;7.78;5.07;;;;;;;30.91;35.44;97563.28;10421400;28;20056;-61
2022/07/01 11:05:53;;;;;;;6.10;4.20;;;;;;;31.24;36.14;97558.63;10421480;28;20060;-61
2022/07/01 11:10:58;;;;;;;6.03;4.50;;;;;;;31.40;36.10;97560.78;10418292;28;20457;-61
2022/07/01 11:15:57;;;;;;;5.10;4.45;;;;;;;31.63;36.89;97529.25;10419779;28;20060;-61
2022/07/01 11:21:04;;;;;;;9.07;4.63;;;;;;;31.81;36.89;97558.91;10418610;28;20561;-61
2022/07/01 11:26:02;;;;;;;7.35;4.93;;;;;;;31.79;35.79;97534.06;10419268;28;20060;-61
2022/07/01 11:31:01;;;;;;;6.18;4.68;;;;;;;31.96;36.57;97551.28;10419444;28;20438;-61
2022/07/01 11:41:24;;;;;;;7.07;4.75;;;;;;;31.69;37.87;97543.94;10419070;28;20475;-61
2022/07/01 11:46:23;;;;;;;6.30;4.88;;;;;;;31.63;37.30;97542.66;10418679;28;20519;-61
2022/07/01 11:51:26;;;;;;;6.93;4.57;;;;;;;31.56;38.38;97526.25;10417895;28;21248;-61
2022/07/01 11:56:34;;;;;;;5.93;4.68;;;;;;;31.85;38.02;97527.25;10417670;28;20068;-61
2022/07/01 12:01:34;;;;;;;;;;;;;;;31.57;39.98;97524.44;10418463;28;20076;-61
2022/07/01 12:06:35;;;;;;;6.30;4.40;;;;;;;31.88;38.42;97511.75;10417863;28;19956;-61
2022/07/01 12:11:34;;;;;;;6.60;5.20;;;;;;;31.71;38.08;97510.63;10417217;28;20503;-61
2022/07/01 12:16:43;;;;;;;6.18;4.43;;;;;;;31.91;38.35;97506.09;10417378;28;20064;-61
2022/07/01 12:21:48;;;;;;;5.93;4.88;;;;;;;32.01;39.28;97506.94;10416934;28;20060;-61
2022/07/01 12:26:58;;;;;;;6.10;4.78;;;;;;;32.08;38.69;97507.22;10417018;28;20082;-61
2022/07/01 12:32:02;;;;;;;6.18;5.20;;;;;;;31.83;38.20;97497.91;10417442;28;20072;-61
2022/07/01 12:37:01;;;;;;;7.53;5.22;;;;;;;31.76;38.89;97502.16;10416486;28;20060;-61
2022/07/01 12:42:00;;;;;;;8.52;4.93;;;;;;;31.86;39.24;97497.63;10416727;28;20224;-61
2022/07/01 12:47:16;;;;;;;7.60;4.88;;;;;;;32.14;39.99;97492.41;10416513;28;20512;-61
2022/07/01 12:52:26;;;;;;;5.90;5.07;;;;;;;32.14;39.58;97493.25;10416477;28;20063;-61
2022/07/01 12:57:32;;;;;;;5.80;4.63;;;;;;;32.11;38.75;97492.69;10416072;28;20063;-61
2022/07/01 13:02:31;;;;;;;5.65;4.85;;;;;;;32.48;38.41;97491.91;10416242;28;20068;-61
2022/07/01 13:07:30;;;;;;;6.43;4.80;;;;;;;32.11;38.94;97490.84;10415551;28;20028;-61
2022/07/01 13:12:30;;;;;;;6.13;4.82;;;;;;;32.22;38.56;97471.91;10415701;28;20442;-61
2022/07/01 13:17:29;;;;;;;7.13;5.35;;;;;;;32.26;38.91;97479.66;10415697;28;20064;-61
2022/07/01 13:22:28;;;;;;;6.25;4.97;;;;;;;32.29;37.55;97482.91;10414812;28;20036;-61
2022/07/01 13:27:27;;;;;;;8.48;5.10;;;;;;;32.12;37.59;97468.38;10411066;28;20067;-62
2022/07/01 13:32:26;;;;;;;9.05;5.07;;;;;;;32.35;37.71;97471.59;10374339;28;20090;-61
2022/07/01 13:37:25;;;;;;;7.10;5.13;;;;;;;32.44;36.98;97469.88;10387018;28;20100;-61
2022/07/01 13:42:24;;;;;;;5.78;5.05;;;;;;;32.50;34.99;97465.75;10414589;28;20067;-61
2022/07/01 13:47:24;;;;;;;6.00;5.40;;;;;;;32.80;35.63;97464.66;10413920;28;20058;-62
2022/07/01 13:52:23;;;;;;;6.07;5.28;;;;;;;32.85;35.09;97462.38;10414680;28;20128;-60
2022/07/01 13:57:22;;;;;;;5.70;5.10;;;;;;;32.82;34.00;97466.19;10415005;28;20067;-60
2022/07/01 14:02:21;;;;;;;6.55;5.05;;;;;;;32.80;32.50;97456.59;10415171;28;20499;-60
2022/07/01 14:07:20;;;;;;;6.80;5.05;;;;;;;32.91;32.43;97455.56;10414755;28;20099;-60
2022/07/01 14:12:19;;;;;;;7.30;5.53;;;;;;;32.93;32.54;97461.66;10414623;28;20463;-60
2022/07/01 14:17:18;;;;;;;6.75;5.68;;;;;;;32.97;32.13;97463.00;10414669;28;20064;-60
2022/07/01 14:22:18;;;;;;;5.32;4.65;;;;;;;32.98;30.84;97457.50;10414631;28;20051;-60
2022/07/01 14:27:17;;;;;;;9.13;5.28;;;;;;;32.83;34.07;97465.22;10413880;28;20329;-62
2022/07/01 14:32:16;;;;;;;7.30;5.55;;;;;;;32.79;34.71;97465.66;10414485;28;20064;-60
2022/07/01 14:37:15;;;;;;;7.25;5.43;;;;;;;32.74;34.69;97466.13;10419348;28;20102;-60
2022/07/01 14:42:14;;;;;;;7.25;5.45;;;;;;;32.67;35.57;97454.28;10421045;28;20453;-60
2022/07/01 14:47:13;;;;;;;7.05;6.10;;;;;;;32.42;35.45;97451.22;10418988;28;20037;-60
2022/07/01 14:52:12;;;;;;;6.45;5.22;;;;;;;32.54;34.30;97464.47;10412372;28;20431;-60
2022/07/01 14:57:11;;;;;;;6.82;5.82;;;;;;;32.39;34.83;97435.41;10417896;28;20090;-61
2022/07/01 15:02:10;;;;;;;7.85;5.50;;;;;;;32.69;34.04;97454.09;10409927;28;20790;-61
2022/07/01 15:07:09;;;;;;;6.53;5.70;;;;;;;32.46;33.04;97437.47;10414141;28;20479;-61
2022/07/01 15:12:08;;;;;;;9.85;6.10;;;;;;;32.32;34.68;97465.63;10420035;28;20500;-61
2022/07/01 15:17:08;;;;;;;6.38;5.72;;;;;;;32.33;35.09;97467.34;10418577;28;20060;-62
2022/07/01 15:22:08;;;;;;;6.18;5.57;;;;;;;32.11;35.00;97463.19;10419654;28;20526;-62
2022/07/01 15:27:08;;;;;;;8.90;6.15;;;;;;;32.00;34.97;97475.72;10419350;28;20063;-61
2022/07/01 15:32:07;;;;;;;7.40;6.32;;;;;;;31.98;34.33;97472.31;10418322;28;20471;-61
2022/07/01 15:37:06;;;;;;;7.03;5.80;;;;;;;31.81;35.21;97475.75;10418579;28;20356;-61
2022/07/01 15:42:05;;;;;;;7.68;6.50;;;;;;;31.69;35.64;97475.03;10418627;28;20467;-61
2022/07/01 15:52:22;;;;;;;7.68;6.78;;;;;;;31.58;35.53;97472.47;10417102;28;20535;-61
2022/07/01 15:57:21;;;;;;;10.00;6.95;;;;;;;31.45;35.45;97462.00;10417933;28;20067;-61
2022/07/01 16:02:20;;;;;;;8.60;6.72;;;;;;;31.26;35.16;97475.38;10417380;28;20028;-61
2022/07/01 16:07:22;;;;;;;10.52;6.47;;;;;;;31.13;35.52;97468.44;10417072;28;20106;-61
2022/07/01 16:12:22;;;;;;;6.25;5.65;;;;;;;31.31;32.72;97465.94;10415539;28;20084;-61
2022/07/01 16:17:27;;;;;;;8.10;6.18;;;;;;;31.35;33.80;97469.19;10375107;28;20071;-61
2022/07/01 16:22:26;;;;;;;10.13;6.38;;;;;;;31.34;33.91;97464.81;10396632;28;20510;-61
2022/07/01 16:27:27;;;;;;;7.72;6.47;;;;;;;31.33;34.06;97469.31;10416039;28;20135;-61
2022/07/01 16:32:26;;;;;;;7.13;6.35;;;;;;;31.18;33.35;97455.47;10416382;28;20064;-61
2022/07/01 16:37:31;;;;;;;8.38;6.13;;;;;;;31.18;34.82;97482.28;10386469;28;20590;-61
2022/07/01 16:42:32;;;;;;;9.05;5.72;;;;;;;31.03;35.49;97489.03;10374584;28;20068;-61
2022/07/01 16:47:34;;;;;;;8.27;6.47;;;;;;;31.20;35.40;97492.03;10371831;28;20072;-61
2022/07/01 16:52:45;;;;;;;7.80;6.88;;;;;;;31.44;38.33;97495.16;10374170;28;20065;-61
2022/07/01 16:57:47;;;;;;;9.02;7.30;;;;;;;31.56;39.55;97485.19;10374877;28;20080;-61
2022/07/01 17:02:48;;;;;;;8.93;7.03;;;;;;;31.40;41.74;97474.97;10374340;28;20072;-61
2022/07/01 17:07:48;;;;;;;7.78;6.90;;;;;;;31.38;42.40;97501.94;10387878;28;20064;-61
2022/07/01 17:12:48;;;;;;;8.90;7.05;;;;;;;31.18;43.30;97509.06;10399170;28;20583;-61
2022/07/01 17:17:48;;;;;;;11.15;7.20;;;;;;;30.92;44.03;97514.03;10371382;28;20057;-61
2022/07/01 17:23:08;;;;;;;9.43;8.07;;;;;;;30.65;43.51;97516.47;10373627;28;20069;-61
2022/07/01 17:28:52;;;;;;;9.13;7.72;;;;;;;30.32;42.81;97521.88;10373855;28;20064;-61
2022/07/01 17:33:53;;;;;;;13.18;8.07;;;;;;;29.98;42.62;97523.91;10286928;28;20080;-61
2022/07/01 17:38:54;;;;;;;11.55;7.63;;;;;;;29.65;43.06;97538.25;10353216;28;20091;-61
2022/07/01 17:44:05;;;;;;;10.20;7.88;;;;;;;29.34;43.81;97543.38;10373499;28;20539;-62
2022/07/01 17:49:06;;;;;;;13.57;7.97;;;;;;;28.99;44.33;97547.06;10371410;28;20102;-62
2022/07/01 17:54:06;;;;;;;9.55;8.45;;;;;;;28.62;45.10;97549.06;10372712;28;20073;-62
2022/07/01 17:59:05;;;;;;;12.10;8.68;;;;;;;28.24;47.10;97553.72;10373869;28;20065;-62
2022/07/01 18:04:06;;;;;;;12.45;9.13;;;;;;;27.87;48.56;97557.41;10373181;28;20475;-62
2022/07/01 18:09:05;;;;;;;10.57;8.88;;;;;;;27.48;50.35;97552.25;10399414;28;20487;-62
2022/07/01 18:14:10;;;;;;;11.40;9.00;;;;;;;27.22;52.25;97556.78;10422046;28;20088;-62
2022/07/01 18:19:33;;;;;;;12.38;8.93;;;;;;;26.76;55.83;97547.53;10377713;28;20083;-62
2022/07/01 18:24:41;;;;;;;15.90;11.07;;;;;;;26.55;58.21;97563.19;10402449;28;20083;-62
2022/07/01 18:29:46;;;;;;;14.35;10.77;;;;;;;26.20;60.43;97568.28;10421178;28;20076;-62
2022/07/01 18:34:59;;;;;;;16.35;11.35;;;;;;;25.96;62.18;97570.75;10420615;28;20074;-61
2022/07/01 18:39:58;;;;;;;15.30;10.95;;;;;;;25.74;64.32;97572.16;10420299;28;20067;-61
2022/07/01 18:44:57;;;;;;;14.50;12.23;;;;;;;25.56;64.77;97572.53;10420577;28;20035;-61
2022/07/01 18:49:56;;;;;;;19.83;13.68;;;;;;;25.41;65.23;97584.94;10421078;28;20479;-61
2022/07/01 18:54:55;;;;;;;15.60;11.60;;;;;;;25.26;65.51;97587.63;10419828;28;20431;-61
2022/07/01 18:59:55;;;;;;;16.15;11.27;;;;;;;25.04;65.82;97574.00;10420214;28;20467;-61
2022/07/01 19:04:54;;;;;;;16.30;11.90;;;;;;;24.97;65.77;97602.72;10419434;28;20076;-62
2022/07/01 19:09:53;;;;;;;16.73;12.40;;;;;;;24.81;65.86;97591.31;10419383;28;20036;-61
2022/07/01 19:14:52;;;;;;;17.60;13.40;;;;;;;24.72;65.94;97603.34;10418816;28;20375;-61
2022/07/01 19:19:51;;;;;;;19.80;14.18;;;;;;;24.55;65.54;97595.56;10413839;28;20076;-61
2022/07/01 19:24:50;;;;;;;15.85;12.48;;;;;;;24.56;64.43;97602.56;10418709;28;20097;-61
2022/07/01 19:29:49;;;;;;;16.70;11.45;;;;;;;24.41;64.65;97604.34;10418960;28;20024;-62
2022/07/01 19:34:48;;;;;;;20.02;12.13;;;;;;;24.19;66.93;97588.81;10419472;28;20500;-61
2022/07/01 19:39:47;;;;;;;16.13;11.52;;;;;;;24.16;66.29;97605.75;10418269;28;20032;-61
2022/07/01 19:44:46;;;;;;;18.83;13.50;;;;;;;23.86;68.16;97597.78;10418279;28;20064;-61
2022/07/01 19:49:45;;;;;;;17.27;13.20;;;;;;;23.85;69.59;97619.91;10412646;28;20055;-62
2022/07/01 19:54:44;;;;;;;17.88;13.30;;;;;;;23.69;71.02;97637.63;10417907;28;20111;-62
2022/07/01 19:59:43;;;;;;;15.20;13.30;;;;;;;23.55;70.88;97641.88;10418004;28;20456;-61
2022/07/01 20:04:43;;;;;;;17.35;13.68;;;;;;;23.38;71.42;97626.06;10417274;28;20522;-61
2022/07/01 20:09:42;;;;;;;21.27;14.45;;;;;;;23.26;71.67;97619.63;10416857;28;20060;-61
2022/07/01 20:14:41;;;;;;;13.38;11.68;;;;;;;23.30;71.41;97646.78;10417498;28;20092;-61
2022/07/01 20:19:40;;;;;;;12.40;11.07;;;;;;;23.21;69.73;97642.88;10416661;28;20024;-62
2022/07/01 20:24:39;;;;;;;11.85;10.10;;;;;;;23.13;68.59;97637.97;10402933;28;20509;-62
2022/07/01 20:29:38;;;;;;;12.52;10.45;;;;;;;23.10;68.28;97639.94;10397370;28;20067;-62
2022/07/01 20:34:37;;;;;;;11.82;10.13;;;;;;;22.97;68.57;97639.72;10417167;28;20094;-61
2022/07/01 20:39:36;;;;;;;14.77;11.07;;;;;;;22.74;70.44;97639.16;10415800;28;20067;-62
2022/07/01 20:44:35;;;;;;;19.38;13.93;;;;;;;22.48;74.75;97648.38;10416447;28;20077;-62
2022/07/01 20:49:34;;;;;;;21.30;14.48;;;;;;;22.22;77.25;97636.47;10415525;28;20384;-62
2022/07/01 20:54:34;;;;;;;14.75;12.57;;;;;;;22.00;78.90;97649.06;10415550;28;20064;-62
2022/07/01 20:59:33;;;;;;;14.50;11.43;;;;;;;21.85;78.30;97655.88;10411164;28;20503;-62
2022/07/01 21:04:32;;;;;;;14.65;11.00;;;;;;;21.69;78.04;97654.00;10415711;28;20071;-62
2022/07/01 21:09:32;;;;;;;14.10;11.13;;;;;;;21.59;78.33;97657.13;10414936;28;20029;-62
2022/07/01 21:14:31;;;;;;;14.40;11.15;;;;;;;21.55;77.73;97657.28;10414798;28;20090;-62
2022/07/01 21:19:31;;;;;;;15.10;11.93;;;;;;;21.53;77.93;97666.22;10415719;28;20556;-62
2022/07/01 21:24:30;;;;;;;15.65;12.27;;;;;;;21.51;77.91;97663.63;10414950;28;20082;-62
2022/07/01 21:29:29;;;;;;;15.82;12.63;;;;;;;21.50;77.95;97666.31;10409515;28;20112;-62
2022/07/01 21:34:28;;;;;;;15.43;12.98;;;;;;;21.44;79.05;97670.13;10396565;28;20045;-62
2022/07/01 21:39:27;;;;;;;13.70;12.27;;;;;;;21.40;79.07;97665.91;10415077;28;20032;-61
2022/07/01 21:44:30;;;;;;;15.02;12.48;;;;;;;21.34;79.41;97671.47;10417949;28;20499;-62
2022/07/01 21:49:29;;;;;;;14.20;12.60;;;;;;;21.24;80.48;97672.81;10422826;28;20060;-62
2022/07/01 21:54:31;;;;;;;16.05;12.95;;;;;;;21.16;81.15;97677.56;10423068;28;20071;-62
2022/07/01 21:59:33;;;;;;;17.30;13.23;;;;;;;21.18;80.46;97683.63;10421886;28;20083;-62
2022/07/01 22:04:35;;;;;;;13.82;12.32;;;;;;;21.23;80.54;97677.25;10415370;28;20071;-62
2022/07/01 22:09:34;;;;;;;16.67;12.65;;;;;;;21.23;79.89;97689.59;10419125;28;20063;-62
2022/07/01 22:14:40;;;;;;;20.83;13.68;;;;;;;21.19;79.91;97695.88;10420697;28;20095;-62
2022/07/01 22:19:43;;;;;;;15.13;12.23;;;;;;;21.15;80.11;97700.47;10421206;28;20186;-62
2022/07/01 22:24:43;;;;;;;13.90;12.07;;;;;;;21.04;80.09;97700.06;10403484;28;20447;-62
2022/07/01 22:29:43;;;;;;;15.20;11.35;;;;;;;20.96;80.21;97705.69;10421204;28;20064;-62
2022/07/01 22:34:43;;;;;;;15.43;11.75;;;;;;;20.84;81.03;97706.22;10416797;28;20051;-62
2022/07/01 22:39:42;;;;;;;16.17;13.35;;;;;;;20.79;81.47;97709.03;10421048;28;20079;-62
2022/07/01 22:44:42;;;;;;;16.05;12.88;;;;;;;20.73;81.83;97708.44;10421051;28;20060;-62
2022/07/01 22:50:03;;;;;;;18.20;15.15;;;;;;;20.54;84.22;97711.88;10421044;28;20064;-62
2022/07/01 22:55:08;;;;;;;20.23;15.52;;;;;;;20.47;84.87;97713.06;10418977;28;20051;-62
2022/07/01 23:00:08;;;;;;;18.83;15.38;;;;;;;20.42;84.82;97712.38;10420348;28;20063;-61
2022/07/01 23:05:12;;;;;;;19.40;15.95;;;;;;;20.38;84.73;97708.13;10420078;28;20071;-62
2022/07/01 23:10:23;;;;;;;19.08;16.33;;;;;;;20.12;85.27;97665.28;10419546;28;20063;-62
2022/07/01 23:20:44;;;;;;;19.10;15.63;;;;;;;20.16;86.62;97708.13;10419842;28;20491;-62
2022/07/01 23:25:48;;;;;;;19.10;15.68;;;;;;;20.00;88.11;97721.06;10419460;28;20475;-62
2022/07/01 23:30:48;;;;;;;18.27;14.48;;;;;;;19.91;88.58;97721.41;10419099;28;20083;-62
2022/07/01 23:35:50;;;;;;;16.08;12.35;;;;;;;19.97;87.70;97723.81;10419192;28;20362;-61
2022/07/01 23:41:14;;;;;;;16.77;13.35;;;;;;;19.92;86.78;97723.16;10418819;28;20063;-62